Time;durP1;ratioP1;P1;durP2;ratioP2;P2;SDS_P1;SDS_P2;PMS_P1;PMS_P2;Temp;Humidity;BMP_temperature;BMP_pressure;BME280_temperature;BME280_humidity;BME280_pressure;Samples;Min_cycle;Max_cycle;Signal;HPM_P1;HPM_P2
2022/06/06 00:01:16;;;;;;;11.50;4.07;;;27.80;52.70;;;;;;5014094;28;20022;-77
2022/06/06 00:03:42;;;;;;;14.02;3.90;;;27.80;53.30;;;;;;5014380;28;20109;-77
2022/06/06 00:06:13;;;;;;;8.10;3.50;;;27.70;53.20;;;;;;5014084;28;20025;-77
2022/06/06 00:08:40;;;;;;;12.57;3.40;;;27.70;53.20;;;;;;5014017;28;20124;-77
2022/06/06 00:11:09;;;;;;;12.68;4.03;;;27.70;52.90;;;;;;5013904;28;20022;-77
2022/06/06 00:13:40;;;;;;;12.55;3.90;;;27.70;53.00;;;;;;5013983;28;20110;-78
2022/06/06 00:16:06;;;;;;;10.10;3.65;;;27.60;51.40;;;;;;5013843;28;20022;-78
2022/06/06 00:18:33;;;;;;;13.40;4.28;;;27.70;52.40;;;;;;5013987;28;20026;-78
2022/06/06 00:20:59;;;;;;;12.88;3.97;;;27.70;52.70;;;;;;5012542;28;20041;-76
2022/06/06 00:23:25;;;;;;;10.25;3.83;;;27.70;52.70;;;;;;5013765;28;20052;-78
2022/06/06 00:25:53;;;;;;;11.38;4.22;;;27.60;52.40;;;;;;5013866;28;20026;-78
2022/06/06 00:28:18;;;;;;;10.45;4.00;;;27.60;52.50;;;;;;5013607;28;20037;-76
2022/06/06 00:30:45;;;;;;;11.43;4.28;;;27.50;52.40;;;;;;5013675;28;20090;-77
2022/06/06 00:35:59;;;;;;;9.95;3.70;;;27.60;52.00;;;;;;5013717;28;20080;-79
2022/06/06 00:38:26;;;;;;;16.27;4.03;;;27.60;50.90;;;;;;5013666;28;20068;-77
2022/06/06 00:40:52;;;;;;;11.00;3.58;;;27.60;52.20;;;;;;5013932;28;20033;-79
2022/06/06 00:43:18;;;;;;;12.27;4.10;;;27.60;52.10;;;;;;5013795;28;20026;-77
2022/06/06 00:45:50;;;;;;;10.15;3.78;;;27.60;52.10;;;;;;5013735;28;20030;-75
2022/06/06 00:48:39;;;;;;;13.52;4.10;;;27.60;52.10;;;;;;5013941;28;20069;-78
2022/06/06 00:51:15;;;;;;;7.63;3.58;;;27.60;51.90;;;;;;5028596;28;20082;-77
2022/06/06 00:53:46;;;;;;;13.27;3.85;;;27.60;51.80;;;;;;5024793;28;20022;-77
2022/06/06 00:56:26;;;;;;;14.35;3.78;;;27.50;51.70;;;;;;5013719;28;20048;-78
2022/06/06 00:59:01;;;;;;;14.18;3.78;;;27.50;50.50;;;;;;5013751;28;20030;-79
2022/06/06 01:01:27;;;;;;;11.27;4.05;;;27.50;51.90;;;;;;5013255;28;20046;-77
2022/06/06 01:03:57;;;;;;;12.95;3.95;;;27.40;52.00;;;;;;5013607;28;20034;-77
2022/06/06 01:06:24;;;;;;;10.90;3.70;;;27.30;51.90;;;;;;5013974;28;20030;-75
2022/06/06 01:08:51;;;;;;;11.93;3.75;;;27.30;52.00;;;;;;5013330;28;20108;-78
2022/06/06 01:11:17;;;;;;;10.63;3.78;;;27.30;51.80;;;;;;5013541;28;20030;-75
2022/06/06 01:13:45;;;;;;;10.57;4.22;;;27.20;51.80;;;;;;5013412;28;20041;-76
2022/06/06 01:16:32;;;;;;;10.48;3.70;;;27.20;51.70;;;;;;5015507;28;20473;-76
2022/06/06 01:19:24;;;;;;;9.15;3.30;;;27.30;50.20;;;;;;5015028;28;20045;-75
2022/06/06 01:22:04;;;;;;;14.35;3.97;;;27.30;50.30;;;;;;5017484;28;20022;-75
2022/06/06 01:24:50;;;;;;;12.90;3.97;;;27.20;50.20;;;;;;5017415;28;20158;-75
2022/06/06 01:27:45;;;;;;;10.73;3.70;;;27.20;52.00;;;;;;5017657;28;20044;-75
2022/06/06 01:30:15;;;;;;;13.63;3.65;;;27.10;50.70;;;;;;5016940;28;20057;-76
2022/06/06 01:32:45;;;;;;;13.77;3.90;;;27.10;52.30;;;;;;5015678;28;20026;-74
2022/06/06 01:35:20;;;;;;;14.13;4.30;;;27.10;52.20;;;;;;5015444;28;20025;-75
2022/06/06 01:37:46;;;;;;;13.10;4.45;;;27.10;52.40;;;;;;5016767;28;20391;-73
2022/06/06 01:40:15;;;;;;;11.90;4.07;;;27.10;52.40;;;;;;5016587;28;20026;-75
2022/06/06 01:43:05;;;;;;;11.90;4.30;;;27.10;52.50;;;;;;5016791;28;20029;-75
2022/06/06 01:45:38;;;;;;;17.23;5.38;;;27.10;51.10;;;;;;5017089;28;20097;-76
2022/06/06 01:48:11;;;;;;;13.07;5.75;;;27.10;52.50;;;;;;5016969;28;20479;-76
2022/06/06 01:50:38;;;;;;;;;;;27.10;52.30;;;;;;5016848;28;20407;-76
2022/06/06 01:53:13;;;;;;;19.73;6.35;;;27.00;52.80;;;;;;5016660;28;20259;-72
2022/06/06 01:55:42;;;;;;;18.20;6.97;;;26.90;52.50;;;;;;5015184;28;20135;-75
2022/06/06 01:58:11;;;;;;;18.05;8.68;;;26.80;52.40;;;;;;5016352;28;20037;-76
2022/06/06 02:00:38;;;;;;;14.95;8.13;;;26.70;52.40;;;;;;5016230;28;20383;-75
2022/06/06 02:03:05;;;;;;;15.82;8.50;;;26.70;52.20;;;;;;5016385;28;20033;-77
2022/06/06 02:05:31;;;;;;;19.42;7.78;;;26.70;52.10;;;;;;5016313;28;20386;-76
2022/06/06 02:07:57;;;;;;;15.88;6.55;;;26.70;51.90;;;;;;5016269;28;20021;-74
2022/06/06 02:10:23;;;;;;;11.60;5.75;;;26.60;51.70;;;;;;5016120;28;20104;-78
2022/06/06 02:12:49;;;;;;;16.55;5.47;;;26.50;51.40;;;;;;5015972;28;20026;-77
2022/06/06 02:15:18;;;;;;;14.05;5.65;;;26.30;51.60;;;;;;5016235;28;20034;-79
2022/06/06 02:17:45;;;;;;;13.73;5.03;;;26.20;51.40;;;;;;5016144;28;20045;-75
2022/06/06 02:20:14;;;;;;;17.45;5.68;;;26.10;51.60;;;;;;5016112;28;20041;-76
2022/06/06 02:22:39;;;;;;;21.77;5.22;;;26.20;51.70;;;;;;5015939;28;20101;-76
2022/06/06 02:25:07;;;;;;;11.10;4.65;;;26.20;51.40;;;;;;5016104;28;20101;-78
2022/06/06 02:27:36;;;;;;;17.10;5.30;;;26.20;51.10;;;;;;5015907;28;20057;-76
2022/06/06 02:30:05;;;;;;;11.48;4.80;;;26.20;51.30;;;;;;5015698;28;20113;-77
2022/06/06 02:32:31;;;;;;;13.75;4.60;;;26.10;51.20;;;;;;5015802;28;20539;-76
2022/06/06 02:34:58;;;;;;;11.52;4.88;;;26.00;51.20;;;;;;5015606;28;20491;-77
2022/06/06 02:37:24;;;;;;;13.93;4.43;;;26.00;51.50;;;;;;5015641;28;20076;-79
2022/06/06 02:39:50;;;;;;;14.05;4.53;;;25.90;51.20;;;;;;5015686;28;20029;-78
2022/06/06 02:42:16;;;;;;;17.75;4.78;;;26.00;50.90;;;;;;5015622;28;20022;-78
2022/06/06 02:44:42;;;;;;;12.45;4.32;;;25.90;50.90;;;;;;5015559;28;20030;-77
2022/06/06 02:47:07;;;;;;;13.13;4.25;;;25.90;50.60;;;;;;5015520;28;20022;-78
2022/06/06 02:49:33;;;;;;;12.93;4.47;;;25.80;50.40;;;;;;5015363;28;20471;-77
2022/06/06 02:52:03;;;;;;;12.15;4.78;;;25.70;50.40;;;;;;5015700;28;20431;-77
2022/06/06 02:54:30;;;;;;;15.65;4.70;;;25.60;50.40;;;;;;5015273;28;20036;-79
2022/06/06 02:56:56;;;;;;;11.80;3.92;;;25.70;50.50;;;;;;5015436;28;20025;-78
2022/06/06 02:59:23;;;;;;;8.25;4.10;;;25.60;50.60;;;;;;5015290;28;20030;-79
2022/06/06 03:01:51;;;;;;;9.43;4.07;;;25.60;50.60;;;;;;5015551;28;20383;-77
2022/06/06 03:04:17;;;;;;;7.38;4.03;;;25.60;50.40;;;;;;5015506;28;20017;-76
2022/06/06 03:07:02;;;;;;;15.60;4.28;;;25.70;50.40;;;;;;5015856;28;20475;-76
2022/06/06 03:09:47;;;;;;;12.63;4.22;;;25.70;49.10;;;;;;5015457;28;20037;-77
2022/06/06 03:12:41;;;;;;;12.77;4.10;;;25.60;49.30;;;;;;5015373;28;20034;-75
2022/06/06 03:15:32;;;;;;;11.65;3.75;;;25.50;49.50;;;;;;5014997;28;20041;-78
2022/06/06 03:21:12;;;;;;;10.73;4.40;;;25.50;50.10;;;;;;5015162;28;20127;-78
2022/06/06 03:24:08;;;;;;;13.18;4.65;;;25.40;50.30;;;;;;5014769;28;20053;-76
2022/06/06 03:26:51;;;;;;;9.40;4.25;;;25.30;50.60;;;;;;5014663;28;20021;-77
2022/06/06 03:29:53;;;;;;;10.98;4.65;;;25.30;50.60;;;;;;5014306;28;20037;-77
2022/06/06 03:32:38;;;;;;;11.57;4.63;;;25.20;50.70;;;;;;5014421;28;20037;-76
2022/06/06 03:35:28;;;;;;;14.48;4.15;;;25.20;50.80;;;;;;5014413;28;20022;-77
2022/06/06 03:38:11;;;;;;;13.00;3.97;;;25.10;52.00;;;;;;5014328;28;20395;-77
2022/06/06 03:41:02;;;;;;;15.98;4.15;;;25.20;50.80;;;;;;5014483;28;20022;-76
2022/06/06 03:43:42;;;;;;;27.23;4.75;;;25.20;51.20;;;;;;5013826;28;20026;-71
2022/06/06 03:46:26;;;;;;;17.77;5.47;;;25.20;51.10;;;;;;5014331;28;20031;-69
2022/06/06 03:49:07;;;;;;;13.18;4.40;;;25.20;51.20;;;;;;5014693;28;20026;-76
2022/06/06 03:52:00;;;;;;;12.50;3.92;;;25.20;51.90;;;;;;5014250;28;20054;-73
2022/06/06 03:54:55;;;;;;;11.32;3.75;;;25.20;51.60;;;;;;5014201;28;20056;-74
2022/06/06 03:57:24;;;;;;;14.52;4.20;;;25.10;50.30;;;;;;5014054;28;20434;-72
2022/06/06 04:00:04;;;;;;;12.40;3.72;;;25.10;51.60;;;;;;5014423;28;20386;-73
2022/06/06 04:02:36;;;;;;;9.95;3.63;;;25.10;51.60;;;;;;5013672;28;20029;-72
2022/06/06 04:05:11;;;;;;;10.60;3.60;;;25.10;51.60;;;;;;5014061;28;20374;-72
2022/06/06 04:07:37;;;;;;;12.93;3.72;;;25.10;50.00;;;;;;5013906;28;20033;-74
2022/06/06 04:10:04;;;;;;;9.77;3.45;;;25.10;51.30;;;;;;5013736;28;20041;-73
2022/06/06 04:13:05;;;;;;;14.60;3.88;;;25.10;50.70;;;;;;5013934;28;20522;-71
2022/06/06 04:15:40;;;;;;;8.77;3.03;;;25.10;49.50;;;;;;5013708;28;20022;-76
2022/06/06 04:18:27;;;;;;;11.25;3.33;;;25.10;51.00;;;;;;5013810;28;20069;-74
2022/06/06 04:20:55;;;;;;;11.18;3.08;;;25.10;49.70;;;;;;5013634;28;20448;-74
2022/06/06 04:23:56;;;;;;;8.63;3.22;;;25.00;49.80;;;;;;5013597;28;20022;-74
2022/06/06 04:26:51;;;;;;;14.52;4.40;;;25.00;50.10;;;;;;5013638;28;20383;-72
2022/06/06 04:29:43;;;;;;;8.40;3.63;;;25.00;50.40;;;;;;5013513;28;20048;-73
2022/06/06 04:32:22;;;;;;;16.17;4.30;;;25.00;50.30;;;;;;5013805;28;20026;-74
2022/06/06 04:34:48;;;;;;;10.88;3.50;;;25.10;51.80;;;;;;5013246;28;20036;-74
2022/06/06 04:37:34;;;;;;;12.20;3.92;;;25.10;50.90;;;;;;5013062;28;20437;-72
2022/06/06 04:40:16;;;;;;;10.10;3.95;;;25.10;49.60;;;;;;5013238;28;20026;-74
2022/06/06 04:43:10;;;;;;;9.48;3.45;;;25.20;49.50;;;;;;5013146;28;20438;-72
2022/06/06 04:45:59;;;;;;;12.13;3.92;;;25.10;49.70;;;;;;5013304;28;20030;-73
2022/06/06 04:48:26;;;;;;;12.98;4.10;;;25.30;49.30;;;;;;5013272;28;20030;-74
2022/06/06 04:50:54;;;;;;;14.88;4.18;;;25.40;50.60;;;;;;5012805;28;20139;-72
2022/06/06 04:53:23;;;;;;;15.52;4.25;;;25.50;50.30;;;;;;5014669;28;20022;-70
2022/06/06 04:55:51;;;;;;;13.70;3.42;;;25.50;50.10;;;;;;5017308;28;20089;-71
2022/06/06 04:58:18;;;;;;;10.52;3.25;;;25.50;49.70;;;;;;5015896;28;20041;-70
2022/06/06 05:00:45;;;;;;;13.77;4.22;;;25.60;50.00;;;;;;5017252;28;20489;-71
2022/06/06 05:03:13;;;;;;;27.15;4.95;;;25.60;50.00;;;;;;5017174;28;20034;-69
2022/06/06 05:05:49;;;;;;;20.00;4.80;;;25.70;49.50;;;;;;5017075;28;20018;-69
2022/06/06 05:08:34;;;;;;;16.65;3.85;;;25.80;49.50;;;;;;5017002;28;20093;-68
2022/06/06 05:11:18;;;;;;;14.25;3.60;;;25.80;47.80;;;;;;5017209;28;20109;-69
2022/06/06 05:14:05;;;;;;;14.40;3.75;;;26.00;47.60;;;;;;5017267;28;20092;-69
2022/06/06 05:17:13;;;;;;;13.07;3.92;;;26.20;47.10;;;;;;5016967;28;20033;-67
2022/06/06 05:19:55;;;;;;;25.02;4.22;;;26.50;47.00;;;;;;4997652;28;20511;-70
2022/06/06 05:22:53;;;;;;;13.25;3.83;;;26.80;46.60;;;;;;5017135;28;20030;-75
2022/06/06 05:25:43;;;;;;;24.42;5.65;;;27.20;46.00;;;;;;5015502;28;20524;-73
2022/06/06 05:28:12;;;;;;;15.65;3.47;;;27.80;45.40;;;;;;5015916;28;20438;-78
2022/06/06 05:31:00;;;;;;;21.65;4.82;;;28.30;44.70;;;;;;5016842;28;20105;-79
2022/06/06 05:33:41;;;;;;;24.33;4.47;;;28.70;44.50;;;;;;5017870;28;20108;-80
2022/06/06 05:36:19;;;;;;;12.15;3.55;;;28.90;43.80;;;;;;5016942;28;20026;-82
2022/06/06 05:39:16;;;;;;;17.42;4.10;;;29.20;43.90;;;;;;5017335;28;20100;-81
2022/06/06 05:42:12;;;;;;;14.23;3.67;;;29.40;43.20;;;;;;5018414;28;20034;-79
2022/06/06 05:44:59;;;;;;;15.18;3.88;;;29.70;42.20;;;;;;5018908;28;20022;-76
2022/06/06 05:47:43;;;;;;;19.02;3.40;;;29.80;41.50;;;;;;5019148;28;20463;-76
2022/06/06 05:50:12;;;;;;;17.67;4.18;;;30.00;41.40;;;;;;5021783;28;20038;-78
2022/06/06 05:52:47;;;;;;;17.27;3.92;;;30.20;41.70;;;;;;5020599;28;20033;-77
2022/06/06 05:55:32;;;;;;;17.80;3.78;;;30.40;41.50;;;;;;5016630;28;20034;-78
2022/06/06 05:58:41;;;;;;;11.77;3.65;;;30.50;40.30;;;;;;5016626;28;20034;-78
2022/06/06 06:01:44;;;;;;;16.10;3.92;;;30.60;40.10;;;;;;4993818;28;20037;-77
2022/06/06 06:04:43;;;;;;;11.77;3.85;;;30.70;40.30;;;;;;5015838;28;20033;-81
2022/06/06 06:07:16;;;;;;;12.57;3.45;;;30.70;39.80;;;;;;5016259;28;20422;-81
2022/06/06 06:10:07;;;;;;;11.10;3.40;;;30.80;39.70;;;;;;5016040;28;20042;-75
2022/06/06 06:12:43;;;;;;;21.45;4.35;;;31.00;39.70;;;;;;5016267;28;20032;-76
2022/06/06 06:15:38;;;;;;;32.42;4.38;;;31.20;39.50;;;;;;5016325;28;20077;-83
2022/06/06 06:18:09;;;;;;;16.35;3.92;;;31.20;39.70;;;;;;5016506;28;20372;-81
2022/06/06 06:20:41;;;;;;;14.90;3.92;;;31.60;39.00;;;;;;5016806;28;20026;-84
2022/06/06 06:23:11;;;;;;;19.20;4.30;;;31.80;39.00;;;;;;5018106;28;20029;-77
2022/06/06 06:25:40;;;;;;;84.75;7.90;;;31.90;38.60;;;;;;5021459;28;20030;-77
2022/06/06 06:28:11;;;;;;;36.65;6.32;;;32.00;38.20;;;;;;5016609;28;20034;-76
2022/06/06 06:31:01;;;;;;;16.63;4.80;;;32.30;38.00;;;;;;5015735;28;20036;-81
2022/06/06 06:33:46;;;;;;;23.48;5.03;;;32.40;38.10;;;;;;5017008;28;20033;-79
2022/06/06 06:36:32;;;;;;;25.50;4.68;;;32.50;37.30;;;;;;5023871;28;20026;-79
2022/06/06 06:39:03;;;;;;;21.08;4.40;;;32.60;37.70;;;;;;5024669;28;20044;-85
2022/06/06 06:41:29;;;;;;;20.38;4.40;;;32.90;37.80;;;;;;5017061;28;20026;-80
2022/06/06 06:44:08;;;;;;;20.10;3.75;;;33.00;37.10;;;;;;5016364;28;20494;-81
2022/06/06 06:46:46;;;;;;;16.98;3.67;;;33.00;37.60;;;;;;5016600;28;20108;-77
2022/06/06 06:49:35;;;;;;;16.92;3.75;;;33.00;37.10;;;;;;5016007;28;20018;-81
2022/06/06 06:52:25;;;;;;;36.33;5.20;;;32.90;37.40;;;;;;5015601;28;20042;-82
2022/06/06 06:55:02;;;;;;;42.00;5.70;;;32.80;37.40;;;;;;5013412;28;20034;-78
2022/06/06 06:57:56;;;;;;;21.95;3.85;;;32.80;37.50;;;;;;5014509;28;20036;-77
2022/06/06 07:00:23;;;;;;;12.57;3.33;;;32.80;37.40;;;;;;5015213;28;20506;-76
2022/06/06 07:08:55;;;;;;;19.02;4.00;;;32.80;37.60;;;;;;5014785;28;20091;-77
2022/06/06 07:11:23;;;;;;;12.15;3.80;;;32.80;36.90;;;;;;5015101;28;20498;-78
2022/06/06 07:14:14;;;;;;;20.10;4.10;;;32.60;36.80;;;;;;5015006;28;20033;-78
2022/06/06 07:16:40;;;;;;;12.63;3.58;;;32.50;37.60;;;;;;5013709;28;20034;-76
2022/06/06 07:19:20;;;;;;;10.93;3.28;;;32.40;37.30;;;;;;5014621;28;20441;-76
2022/06/06 07:21:47;;;;;;;11.88;3.60;;;32.20;37.80;;;;;;5014699;28;20105;-77
2022/06/06 07:24:21;;;;;;;12.32;4.00;;;32.20;37.30;;;;;;5014543;28;20022;-76
2022/06/06 07:26:48;;;;;;;12.43;3.17;;;32.30;37.60;;;;;;5014294;28;20038;-78
2022/06/06 07:29:17;;;;;;;18.27;3.67;;;32.40;37.30;;;;;;5014457;28;20483;-77
2022/06/06 07:31:52;;;;;;;20.00;4.22;;;32.60;37.10;;;;;;5015865;28;20026;-77
2022/06/06 07:34:40;;;;;;;17.42;4.00;;;32.90;37.30;;;;;;5015988;28;20032;-80
2022/06/06 07:37:12;;;;;;;14.43;3.20;;;33.00;37.10;;;;;;5014685;28;20463;-76
2022/06/06 07:40:00;;;;;;;17.15;3.83;;;33.20;36.20;;;;;;5013123;28;20026;-78
2022/06/06 07:42:38;;;;;;;10.95;3.28;;;33.00;36.60;;;;;;5014875;28;20049;-78
2022/06/06 07:45:16;;;;;;;17.95;3.72;;;33.10;36.60;;;;;;5012946;28;20026;-77
2022/06/06 07:47:42;;;;;;;17.33;3.97;;;33.00;36.40;;;;;;5014198;28;20026;-76
2022/06/06 07:50:17;;;;;;;14.23;4.65;;;32.90;36.50;;;;;;5014125;28;20046;-77
2022/06/06 07:52:55;;;;;;;23.42;4.60;;;32.90;36.40;;;;;;5015199;28;20104;-77
2022/06/06 07:55:41;;;;;;;16.75;3.42;;;32.70;37.10;;;;;;5014203;28;20026;-76
2022/06/06 07:58:09;;;;;;;14.18;3.83;;;32.60;37.40;;;;;;5012852;28;20169;-77
2022/06/06 08:00:36;;;;;;;17.00;4.43;;;32.40;37.20;;;;;;5013795;28;20030;-76
2022/06/06 08:03:23;;;;;;;14.50;3.95;;;32.40;36.80;;;;;;5013848;28;20025;-77
2022/06/06 08:06:10;;;;;;;16.30;3.60;;;32.50;36.70;;;;;;5013522;28;20037;-75
2022/06/06 08:08:48;;;;;;;15.43;3.80;;;32.60;37.50;;;;;;5013508;28;20033;-78
2022/06/06 08:11:34;;;;;;;17.75;4.10;;;32.60;37.40;;;;;;5014051;28;20034;-78
2022/06/06 08:14:43;;;;;;;15.98;4.38;;;32.70;36.40;;;;;;5013905;28;20467;-75
2022/06/06 08:17:55;;;;;;;13.63;3.95;;;32.60;37.10;;;;;;5008843;28;20104;-76
2022/06/06 08:20:22;;;;;;;10.27;3.85;;;32.60;37.70;;;;;;5016686;28;20116;-76
2022/06/06 08:22:52;;;;;;;19.73;4.65;;;32.60;36.90;;;;;;5016125;28;20037;-76
2022/06/06 08:25:20;;;;;;;17.13;3.90;;;32.60;36.90;;;;;;5016349;28;20022;-75
2022/06/06 08:27:50;;;;;;;16.98;4.15;;;32.60;37.30;;;;;;5012835;28;20072;-78
2022/06/06 08:30:17;;;;;;;18.35;3.95;;;32.50;37.10;;;;;;5013304;28;20021;-76
2022/06/06 08:32:43;;;;;;;15.43;3.40;;;32.40;37.10;;;;;;5013499;28;20029;-76
2022/06/06 08:35:10;;;;;;;22.45;4.03;;;32.20;37.00;;;;;;5013063;28;20491;-75
2022/06/06 08:37:38;;;;;;;14.52;3.55;;;32.10;37.10;;;;;;5013206;28;20084;-76
2022/06/06 08:40:26;;;;;;;12.43;4.07;;;32.10;37.60;;;;;;5013360;28;20482;-76
2022/06/06 08:42:57;;;;;;;18.60;4.00;;;32.10;38.10;;;;;;5012652;28;20034;-78
2022/06/06 08:45:49;;;;;;;21.17;5.28;;;32.10;38.20;;;;;;5015011;28;20026;-78
2022/06/06 08:48:39;;;;;;;14.20;4.22;;;32.20;38.50;;;;;;5014480;28;20053;-74
2022/06/06 08:51:26;;;;;;;20.77;4.00;;;32.30;37.50;;;;;;5013079;28;20058;-77
2022/06/06 08:54:06;;;;;;;13.10;3.70;;;32.30;38.10;;;;;;5013457;28;20044;-76
2022/06/06 08:57:06;;;;;;;14.10;3.83;;;32.30;38.30;;;;;;5013824;28;20022;-78
2022/06/06 08:59:50;;;;;;;15.68;4.20;;;32.30;37.50;;;;;;5013148;28;20113;-76
2022/06/06 09:02:21;;;;;;;18.55;4.72;;;32.20;37.70;;;;;;5011621;28;20391;-77
2022/06/06 09:05:06;;;;;;;15.45;3.53;;;32.20;37.70;;;;;;5013318;28;20034;-78
2022/06/06 09:07:43;;;;;;;17.83;3.90;;;32.20;36.00;;;;;;5013241;28;20106;-80
2022/06/06 09:10:27;;;;;;;20.35;3.50;;;32.20;36.90;;;;;;5011575;28;20026;-77
2022/06/06 09:13:07;;;;;;;22.88;3.55;;;32.30;36.50;;;;;;5012959;28;20038;-75
2022/06/06 09:15:37;;;;;;;11.27;3.38;;;32.30;36.30;;;;;;5012577;28;20034;-76
2022/06/06 09:18:33;;;;;;;14.35;4.07;;;32.30;35.60;;;;;;5012656;28;20069;-76
2022/06/06 09:21:04;;;;;;;11.18;3.25;;;32.40;36.10;;;;;;5013051;28;20394;-78
2022/06/06 09:23:48;;;;;;;13.07;3.63;;;32.30;35.60;;;;;;5013176;28;20064;-79
2022/06/06 09:26:23;;;;;;;13.95;3.00;;;32.30;35.70;;;;;;5011619;28;20028;-78
2022/06/06 09:29:04;;;;;;;11.38;2.92;;;32.40;35.20;;;;;;5013102;28;20087;-76
2022/06/06 09:31:48;;;;;;;11.00;3.72;;;32.40;34.50;;;;;;5013088;28;20029;-75
2022/06/06 09:34:38;;;;;;;21.55;4.18;;;32.50;34.80;;;;;;5012611;28;20100;-76
2022/06/06 09:37:19;;;;;;;15.07;3.70;;;32.60;34.70;;;;;;5012250;28;20042;-76
2022/06/06 09:39:48;;;;;;;19.77;4.22;;;32.70;34.60;;;;;;5013194;28;20021;-76
2022/06/06 09:42:19;;;;;;;11.10;2.72;;;32.70;34.10;;;;;;5016332;28;20034;-75
2022/06/06 09:44:51;;;;;;;10.55;3.20;;;32.80;33.60;;;;;;5016250;28;20106;-76
2022/06/06 09:47:46;;;;;;;18.98;3.20;;;32.80;32.80;;;;;;5016373;28;20028;-77
2022/06/06 09:50:33;;;;;;;13.38;3.30;;;32.80;32.00;;;;;;5015903;28;20045;-77
2022/06/06 09:53:27;;;;;;;11.27;4.13;;;32.80;32.30;;;;;;5014663;28;20026;-75
2022/06/06 09:59:02;;;;;;;13.27;3.00;;;32.80;32.80;;;;;;5015593;28;20076;-76
2022/06/06 10:02:06;;;;;;;9.68;3.63;;;32.90;32.30;;;;;;5015787;28;20021;-76
2022/06/06 10:04:50;;;;;;;;;;;33.00;32.80;;;;;;5013442;28;20040;-74
2022/06/06 10:07:34;;;;;;;9.25;2.75;;;33.00;30.90;;;;;;5015725;28;20256;-76
2022/06/06 10:10:33;;;;;;;10.35;2.70;;;33.00;31.10;;;;;;5015921;28;20518;-76
2022/06/06 10:13:30;;;;;;;13.82;3.35;;;33.10;30.30;;;;;;5015744;28;20160;-78
2022/06/06 10:16:04;;;;;;;17.25;4.00;;;33.20;29.60;;;;;;5015964;28;20038;-76
2022/06/06 10:18:33;;;;;;;20.77;3.50;;;33.20;30.50;;;;;;5015692;28;20475;-76
2022/06/06 10:21:17;;;;;;;9.63;3.00;;;33.30;30.00;;;;;;5015214;28;20030;-78
2022/06/06 10:23:54;;;;;;;11.23;2.78;;;33.30;30.10;;;;;;5015305;28;20028;-75
2022/06/06 10:26:41;;;;;;;8.50;2.78;;;33.40;29.30;;;;;;5015407;28;20034;-76
2022/06/06 10:30:10;;;;;;;9.32;2.67;;;33.50;29.00;;;;;;5015240;28;20037;-76
2022/06/06 10:32:40;;;;;;;11.02;2.80;;;33.50;28.90;;;;;;5014974;28;20043;-76
2022/06/06 10:35:24;;;;;;;12.75;3.33;;;33.50;28.70;;;;;;5015384;28;20046;-77
2022/06/06 10:38:08;;;;;;;17.15;2.63;;;33.50;28.80;;;;;;5015580;28;20061;-78
2022/06/06 10:40:57;;;;;;;12.43;2.63;;;33.60;28.10;;;;;;5016678;28;20026;-75
2022/06/06 10:43:46;;;;;;;12.98;2.92;;;33.60;28.20;;;;;;5015697;28;20111;-76
2022/06/06 10:46:20;;;;;;;15.45;2.80;;;33.60;28.80;;;;;;5015012;28;20038;-75
2022/06/06 10:49:00;;;;;;;9.70;2.60;;;33.60;28.90;;;;;;5015696;28;20018;-77
2022/06/06 10:51:47;;;;;;;8.77;2.60;;;33.60;29.00;;;;;;5014771;28;20056;-76
2022/06/06 10:54:55;;;;;;;9.02;2.50;;;33.70;28.10;;;;;;5017045;28;20110;-78
2022/06/06 10:57:39;;;;;;;5.57;2.00;;;33.70;27.70;;;;;;5017524;28;20030;-76
2022/06/06 11:00:12;;;;;;;7.82;2.35;;;33.70;27.60;;;;;;5016361;28;20045;-76
2022/06/06 11:03:14;;;;;;;13.52;2.88;;;33.70;27.70;;;;;;5015453;28;20494;-76
2022/06/06 11:06:13;;;;;;;13.60;2.65;;;33.80;27.80;;;;;;5015335;28;20049;-77
2022/06/06 11:08:42;;;;;;;8.90;2.35;;;33.80;27.60;;;;;;5014967;28;20101;-77
2022/06/06 11:11:31;;;;;;;7.53;2.38;;;33.80;28.00;;;;;;5015208;28;20037;-76
2022/06/06 11:14:12;;;;;;;10.95;2.35;;;33.90;27.30;;;;;;5013771;28;20434;-76
2022/06/06 11:16:54;;;;;;;9.10;2.53;;;33.90;27.80;;;;;;5015853;28;20216;-76
2022/06/06 11:20:02;;;;;;;9.73;2.50;;;33.90;29.00;;;;;;5014716;28;20038;-77
2022/06/06 11:22:41;;;;;;;9.38;2.33;;;33.90;28.60;;;;;;5014877;28;20104;-77
2022/06/06 11:25:11;;;;;;;6.65;2.30;;;33.90;28.10;;;;;;5014600;28;20040;-76
2022/06/06 11:27:58;;;;;;;10.27;2.28;;;33.90;27.90;;;;;;5014378;28;20022;-78
2022/06/06 11:30:44;;;;;;;9.13;2.70;;;33.90;28.10;;;;;;5014113;28;20104;-77
2022/06/06 11:33:29;;;;;;;9.20;2.10;;;34.00;27.90;;;;;;5013906;28;20042;-76
2022/06/06 11:36:36;;;;;;;7.28;2.28;;;34.10;27.20;;;;;;5014582;28;20109;-76
2022/06/06 11:39:28;;;;;;;13.90;3.10;;;34.20;26.80;;;;;;5014309;28;20041;-76
2022/06/06 11:42:27;;;;;;;12.57;2.20;;;34.20;26.70;;;;;;5014454;28;20562;-77
2022/06/06 11:45:16;;;;;;;9.23;2.38;;;34.20;26.50;;;;;;5013180;28;20069;-75
2022/06/06 11:48:19;;;;;;;8.68;2.30;;;34.20;26.20;;;;;;5014244;28;20026;-78
2022/06/06 11:51:15;;;;;;;12.27;2.58;;;34.20;26.70;;;;;;5013921;28;20418;-77
2022/06/06 11:54:15;;;;;;;8.52;2.10;;;34.20;26.70;;;;;;5014636;28;20030;-77
2022/06/06 11:57:08;;;;;;;12.05;3.00;;;34.30;26.60;;;;;;5014201;28;20042;-78
2022/06/06 12:00:11;;;;;;;10.55;2.97;;;34.30;27.10;;;;;;5012967;28;20042;-77
2022/06/06 12:02:46;;;;;;;10.07;2.83;;;34.40;27.40;;;;;;5013819;28;20026;-76
2022/06/06 12:05:27;;;;;;;12.60;3.03;;;34.40;27.90;;;;;;5014413;28;20427;-78
2022/06/06 12:08:22;;;;;;;8.63;2.88;;;34.40;27.90;;;;;;5014067;28;20060;-80
2022/06/06 12:11:25;;;;;;;7.68;2.50;;;34.50;27.60;;;;;;5014107;28;20030;-77
2022/06/06 12:13:50;;;;;;;20.10;2.63;;;34.40;27.30;;;;;;5014020;28;20116;-76
2022/06/06 12:16:45;;;;;;;10.52;3.03;;;34.50;28.00;;;;;;5013537;28;20053;-76
2022/06/06 12:19:16;;;;;;;7.53;2.35;;;34.60;27.40;;;;;;4995154;28;20033;-79
2022/06/06 12:22:18;;;;;;;10.18;2.50;;;34.50;27.90;;;;;;5013639;28;20041;-77
2022/06/06 12:25:16;;;;;;;12.45;2.70;;;34.50;28.00;;;;;;5013388;28;20087;-76
2022/06/06 12:28:10;;;;;;;5.60;2.25;;;34.50;27.80;;;;;;5013685;28;20106;-76
2022/06/06 12:31:16;;;;;;;11.55;2.30;;;34.40;28.60;;;;;;5013283;28;20030;-78
2022/06/06 12:34:01;;;;;;;10.57;2.65;;;34.40;27.70;;;;;;5013563;28;20022;-76
2022/06/06 12:36:39;;;;;;;7.63;2.55;;;34.30;27.80;;;;;;5013403;28;20037;-74
2022/06/06 12:39:11;;;;;;;7.38;2.60;;;34.30;28.00;;;;;;5013467;28;20046;-76
2022/06/06 12:42:12;;;;;;;11.38;2.92;;;34.30;28.80;;;;;;5013302;28;20026;-77
2022/06/06 12:45:03;;;;;;;12.73;3.60;;;34.40;30.20;;;;;;5013502;28;20026;-75
2022/06/06 12:48:08;;;;;;;12.20;3.10;;;34.40;31.40;;;;;;5013224;28;20029;-77
2022/06/06 12:50:45;;;;;;;15.73;3.33;;;34.50;32.50;;;;;;5013059;28;20084;-76
2022/06/06 12:53:43;;;;;;;19.00;3.40;;;34.60;32.70;;;;;;5013387;28;20030;-76
2022/06/06 12:56:24;;;;;;;11.95;3.40;;;34.70;32.50;;;;;;5011777;28;20029;-76
2022/06/06 12:59:09;;;;;;;11.75;2.90;;;34.80;31.80;;;;;;5011841;28;20122;-78
2022/06/06 13:01:59;;;;;;;18.98;3.35;;;34.90;31.60;;;;;;5013310;28;20054;-75
2022/06/06 13:04:34;;;;;;;19.83;3.35;;;35.10;31.60;;;;;;5013375;28;20491;-76
2022/06/06 13:07:24;;;;;;;14.90;2.95;;;35.10;31.50;;;;;;5011804;28;20033;-76
2022/06/06 13:10:08;;;;;;;10.73;3.22;;;35.10;30.90;;;;;;5013048;28;20370;-76
2022/06/06 13:12:56;;;;;;;13.50;3.42;;;35.10;30.50;;;;;;5013061;28;20061;-77
2022/06/06 13:15:41;;;;;;;11.55;2.97;;;35.10;30.70;;;;;;5016452;28;20018;-78
2022/06/06 13:18:25;;;;;;;10.80;3.00;;;35.00;30.60;;;;;;5016923;28;20042;-77
2022/06/06 13:21:24;;;;;;;11.95;2.85;;;35.00;30.40;;;;;;5016626;28;20026;-77
2022/06/06 13:24:27;;;;;;;13.88;2.70;;;35.00;30.30;;;;;;5017229;28;20072;-77
2022/06/06 13:26:55;;;;;;;19.48;3.20;;;35.00;30.50;;;;;;5016790;28;20036;-76
2022/06/06 13:29:29;;;;;;;8.98;2.65;;;35.00;30.40;;;;;;5017312;28;20112;-77
2022/06/06 13:32:21;;;;;;;8.45;2.25;;;34.90;29.30;;;;;;5017575;28;20455;-76
2022/06/06 13:35:27;;;;;;;9.00;2.47;;;35.00;28.80;;;;;;4989560;28;20516;-76
2022/06/06 13:38:15;;;;;;;9.18;2.70;;;35.10;28.50;;;;;;4986688;28;20046;-78
2022/06/06 13:40:47;;;;;;;8.88;2.63;;;35.00;29.00;;;;;;5016675;28;20118;-76
2022/06/06 13:43:50;;;;;;;12.37;5.47;;;35.00;28.50;;;;;;5016602;28;20068;-75
2022/06/06 13:46:46;;;;;;;8.52;1.80;;;35.10;27.50;;;;;;5016431;28;20284;-79
2022/06/06 13:49:36;;;;;;;7.28;1.52;;;35.10;25.50;;;;;;5016330;28;20029;-76
2022/06/06 13:52:26;;;;;;;8.90;1.90;;;35.00;24.60;;;;;;5016438;28;20117;-77
2022/06/06 13:54:51;;;;;;;12.48;2.17;;;35.00;24.30;;;;;;5016049;28;20523;-78
2022/06/06 13:57:27;;;;;;;6.68;1.90;;;35.00;25.30;;;;;;5014527;28;20141;-78
2022/06/06 14:00:06;;;;;;;14.02;2.58;;;35.10;25.20;;;;;;5016048;28;20114;-76